createdAt,value
2023-05-20T00:00:30.430Z,0.10
2023-05-20T00:01:30.487Z,0.10
2023-05-20T00:02:30.440Z,0.10
2023-05-20T00:03:30.448Z,0.10
2023-05-20T00:04:30.421Z,0.10
2023-05-20T00:05:30.335Z,0.10
2023-05-20T00:06:30.331Z,0.10
2023-05-20T00:07:30.358Z,0.10
2023-05-20T00:08:30.347Z,0.10
2023-05-20T00:09:30.282Z,0.10
2023-05-20T00:10:30.285Z,0.10
2023-05-20T00:11:30.264Z,0.10
2023-05-20T00:12:30.248Z,0.10
2023-05-20T00:13:30.264Z,0.10
2023-05-20T00:14:30.236Z,0.10
2023-05-20T00:15:30.215Z,0.10
2023-05-20T00:16:30.350Z,0.10
2023-05-20T00:17:30.236Z,0.10
2023-05-20T00:18:30.217Z,0.10
2023-05-20T00:19:30.269Z,0.10
2023-05-20T00:20:30.192Z,0.10
2023-05-20T00:21:30.152Z,0.10
2023-05-20T00:22:30.146Z,0.10
2023-05-20T00:23:30.134Z,0.10
2023-05-20T00:24:30.125Z,0.10
2023-05-20T00:25:30.106Z,0.10
2023-05-20T00:26:30.092Z,0.10
2023-05-20T00:27:30.082Z,0.10
2023-05-20T00:28:30.054Z,0.10
2023-05-20T00:29:30.078Z,0.10
2023-05-20T00:30:30.028Z,0.10
2023-05-20T00:31:30.156Z,0.10
2023-05-20T00:32:30.087Z,0.10
2023-05-20T00:33:29.988Z,0.10
2023-05-20T00:34:29.990Z,0.10
2023-05-20T00:35:29.966Z,0.10
2023-05-20T00:36:30.011Z,0.10
2023-05-20T00:37:29.967Z,0.10
2023-05-20T00:38:29.927Z,0.10
2023-05-20T00:39:29.921Z,0.10
2023-05-20T00:40:29.897Z,0.10
2023-05-20T00:41:29.886Z,0.10
2023-05-20T00:42:29.892Z,0.10
2023-05-20T00:43:29.865Z,0.10
2023-05-20T00:44:29.867Z,0.10
2023-05-20T00:45:29.820Z,0.10
2023-05-20T00:46:29.913Z,0.10
2023-05-20T00:47:29.825Z,0.10
2023-05-20T00:48:29.802Z,0.10
2023-05-20T00:49:29.795Z,0.10
2023-05-20T00:50:29.759Z,0.10
2023-05-20T00:51:29.799Z,0.10
2023-05-20T00:52:29.760Z,0.10
2023-05-20T00:53:29.737Z,0.10
2023-05-20T00:54:29.746Z,0.10
2023-05-20T00:55:29.713Z,0.10
2023-05-20T00:56:29.703Z,0.10
2023-05-20T00:57:29.704Z,0.10
2023-05-20T00:58:29.663Z,0.10
2023-05-20T00:59:29.671Z,0.10
2023-05-20T01:00:29.683Z,0.10
2023-05-20T01:01:29.690Z,0.10
2023-05-20T01:02:29.728Z,0.10
2023-05-20T01:03:29.852Z,0.10
2023-05-20T01:04:29.615Z,0.10
2023-05-20T01:05:29.608Z,0.10
2023-05-20T01:06:29.596Z,0.10
2023-05-20T01:07:29.582Z,0.10
2023-05-20T01:08:29.545Z,0.10
2023-05-20T01:09:29.523Z,0.10
2023-05-20T01:10:29.530Z,0.10
2023-05-20T01:11:29.505Z,0.10
2023-05-20T01:12:29.486Z,0.10
2023-05-20T01:13:29.483Z,0.10
2023-05-20T01:14:29.464Z,0.10
2023-05-20T01:15:29.565Z,0.10
2023-05-20T01:16:29.525Z,0.10
2023-05-20T01:17:29.452Z,0.10
2023-05-20T01:18:29.418Z,0.10
2023-05-20T01:19:29.421Z,0.10
2023-05-20T01:20:29.407Z,0.10
2023-05-20T01:21:29.370Z,0.10
2023-05-20T01:22:29.406Z,0.10
2023-05-20T01:23:29.350Z,0.10
2023-05-20T01:24:29.338Z,0.10
2023-05-20T01:25:29.329Z,0.10
2023-05-20T01:26:29.306Z,0.10
2023-05-20T01:27:29.353Z,0.10
2023-05-20T01:28:29.297Z,0.10
2023-05-20T01:29:29.289Z,0.10
2023-05-20T01:30:29.324Z,0.10
2023-05-20T01:31:29.274Z,0.10
2023-05-20T01:32:29.266Z,0.10
2023-05-20T01:33:29.242Z,0.10
2023-05-20T01:34:29.212Z,0.20
2023-05-20T01:35:29.217Z,0.10
2023-05-20T01:36:29.184Z,0.10
2023-05-20T01:37:29.217Z,0.10
2023-05-20T01:38:29.162Z,0.10
2023-05-20T01:39:29.166Z,0.10
2023-05-20T01:40:29.173Z,0.10
2023-05-20T01:41:29.121Z,0.10
2023-05-20T01:42:29.108Z,0.10
2023-05-20T01:43:29.133Z,0.10
2023-05-20T01:44:29.139Z,0.10
2023-05-20T01:45:29.081Z,0.10
2023-05-20T01:46:29.211Z,0.10
2023-05-20T01:47:29.103Z,0.10
2023-05-20T01:48:29.102Z,0.10
2023-05-20T01:49:29.101Z,0.10
2023-05-20T01:50:29.113Z,0.20
2023-05-20T01:51:29.034Z,0.10
2023-05-20T01:52:29.031Z,0.10
2023-05-20T01:53:29.016Z,0.10
2023-05-20T01:54:28.945Z,0.10
2023-05-20T01:55:29.036Z,0.10
2023-05-20T01:56:28.974Z,0.10
2023-05-20T01:57:28.898Z,0.10
2023-05-20T01:58:28.892Z,0.10
2023-05-20T01:59:28.925Z,0.10
2023-05-20T02:00:28.879Z,0.10
2023-05-20T02:01:28.901Z,0.10
2023-05-20T02:02:28.898Z,0.10
2023-05-20T02:03:28.879Z,0.10
2023-05-20T02:04:28.814Z,0.10
2023-05-20T02:05:28.817Z,0.10
2023-05-20T02:06:28.796Z,0.10
2023-05-20T02:07:28.810Z,0.10
2023-05-20T02:08:28.795Z,0.10
2023-05-20T02:09:28.776Z,0.10
2023-05-20T02:10:28.772Z,0.10
2023-05-20T02:11:29.216Z,0.10
2023-05-20T02:12:28.719Z,0.10
2023-05-20T02:13:28.722Z,0.10
2023-05-20T02:14:28.694Z,0.20
2023-05-20T02:15:28.680Z,0.10
2023-05-20T02:16:28.743Z,0.10
2023-05-20T02:17:28.754Z,0.10
2023-05-20T02:18:28.664Z,0.10
2023-05-20T02:19:28.648Z,0.10
2023-05-20T02:20:28.626Z,0.10
2023-05-20T02:21:28.608Z,0.10
2023-05-20T02:22:28.597Z,0.10
2023-05-20T02:23:28.593Z,0.10
2023-05-20T02:24:28.582Z,0.10
2023-05-20T02:25:28.547Z,0.10
2023-05-20T02:26:28.550Z,0.20
2023-05-20T02:27:28.528Z,0.20
2023-05-20T02:28:28.514Z,0.10
2023-05-20T02:29:28.513Z,0.10
2023-05-20T02:30:28.507Z,0.10
2023-05-20T02:31:28.484Z,0.10
2023-05-20T02:32:28.466Z,0.10
2023-05-20T02:33:28.487Z,0.10
2023-05-20T02:34:28.529Z,0.10
2023-05-20T02:35:28.441Z,0.10
2023-05-20T02:36:28.414Z,0.10
2023-05-20T02:37:28.403Z,0.10
2023-05-20T02:38:28.396Z,0.10
2023-05-20T02:39:28.442Z,0.10
2023-05-20T02:40:28.369Z,0.10
2023-05-20T02:41:28.374Z,0.10
2023-05-20T02:42:28.332Z,0.10
2023-05-20T02:43:28.318Z,0.10
2023-05-20T02:44:28.344Z,0.20
2023-05-20T02:45:28.293Z,0.10
2023-05-20T02:46:28.329Z,0.10
2023-05-20T02:47:28.390Z,0.10
2023-05-20T02:48:28.281Z,0.10
2023-05-20T02:49:28.254Z,0.10
2023-05-20T02:50:28.253Z,0.20
2023-05-20T02:51:28.237Z,0.10
2023-05-20T02:52:28.205Z,0.10
2023-05-20T02:53:28.209Z,0.10
2023-05-20T02:54:28.197Z,0.10
2023-05-20T02:55:28.163Z,0.10
2023-05-20T02:56:28.161Z,0.10
2023-05-20T02:57:28.174Z,0.10
2023-05-20T02:58:28.142Z,0.10
2023-05-20T02:59:28.175Z,0.10
2023-05-20T03:00:28.112Z,0.10
2023-05-20T03:01:28.134Z,0.10
2023-05-20T03:02:28.068Z,0.10
2023-05-20T03:03:28.139Z,0.10
2023-05-20T03:04:28.113Z,0.10
2023-05-20T03:05:28.076Z,0.20
2023-05-20T03:06:28.032Z,0.10
2023-05-20T03:07:28.042Z,0.10
2023-05-20T03:08:28.035Z,0.10
2023-05-20T03:09:28.004Z,0.10
2023-05-20T03:10:27.995Z,0.10
2023-05-20T03:11:27.964Z,0.10
2023-05-20T03:12:27.951Z,0.10
2023-05-20T03:13:28.017Z,0.10
2023-05-20T03:14:27.974Z,0.10
2023-05-20T03:15:27.944Z,0.10
2023-05-20T03:16:27.945Z,0.10
2023-05-20T03:17:27.966Z,0.10
2023-05-20T03:18:27.929Z,0.10
2023-05-20T03:19:27.976Z,0.10
2023-05-20T03:20:27.914Z,0.10
2023-05-20T03:21:27.883Z,0.10
2023-05-20T03:22:27.830Z,0.10
2023-05-20T03:23:27.823Z,0.10
2023-05-20T03:24:27.798Z,0.10
2023-05-20T03:25:27.800Z,0.10
2023-05-20T03:26:27.778Z,0.10
2023-05-20T03:27:27.770Z,0.10
2023-05-20T03:28:27.742Z,0.10
2023-05-20T03:29:27.732Z,0.10
2023-05-20T03:30:27.727Z,0.10
2023-05-20T03:31:27.755Z,0.10
2023-05-20T03:32:27.711Z,0.10
2023-05-20T03:33:27.680Z,0.10
2023-05-20T03:34:27.678Z,0.10
2023-05-20T03:35:27.656Z,0.10
2023-05-20T03:36:27.676Z,0.10
2023-05-20T03:37:27.661Z,0.10
2023-05-20T03:38:27.622Z,0.10
2023-05-20T03:39:27.596Z,0.10
2023-05-20T03:40:27.597Z,0.10
2023-05-20T03:41:27.577Z,0.10
2023-05-20T03:42:27.577Z,0.10
2023-05-20T03:43:27.577Z,0.10
2023-05-20T03:44:27.554Z,0.10
2023-05-20T03:45:27.540Z,0.10
2023-05-20T03:46:27.547Z,0.10
2023-05-20T03:47:27.539Z,0.10
2023-05-20T03:48:27.494Z,0.10
2023-05-20T03:49:27.502Z,0.10
2023-05-20T03:50:27.466Z,0.10
2023-05-20T03:51:27.485Z,0.10
2023-05-20T03:52:27.436Z,0.10
2023-05-20T03:53:27.416Z,0.10
2023-05-20T03:54:27.437Z,0.10
2023-05-20T03:55:27.411Z,0.10
2023-05-20T03:56:27.399Z,0.10
2023-05-20T03:57:27.377Z,0.10
2023-05-20T03:58:27.354Z,0.10
2023-05-20T03:59:27.351Z,0.10
2023-05-20T04:00:27.327Z,0.10
2023-05-20T04:01:27.349Z,0.10
2023-05-20T04:02:27.438Z,0.10
2023-05-20T04:03:27.317Z,0.10
2023-05-20T04:04:27.283Z,0.10
2023-05-20T04:05:27.278Z,0.10
2023-05-20T04:06:27.283Z,0.10
2023-05-20T04:07:27.263Z,0.10
2023-05-20T04:08:27.226Z,0.10
2023-05-20T04:09:27.214Z,0.10
2023-05-20T04:10:27.208Z,0.10
2023-05-20T04:11:27.224Z,0.20
2023-05-20T04:12:27.232Z,0.10
2023-05-20T04:13:27.175Z,0.20
2023-05-20T04:14:27.151Z,0.10
2023-05-20T04:15:27.143Z,0.10
2023-05-20T04:16:27.222Z,0.10
2023-05-20T04:17:27.194Z,0.10
2023-05-20T04:18:27.124Z,0.10
2023-05-20T04:19:27.215Z,0.10
2023-05-20T04:20:27.089Z,0.10
2023-05-20T04:21:27.064Z,0.10
2023-05-20T04:22:27.114Z,0.10
2023-05-20T04:23:27.035Z,0.10
2023-05-20T04:24:27.063Z,0.10
2023-05-20T04:25:27.022Z,0.10
2023-05-20T04:26:27.048Z,0.20
2023-05-20T04:27:27.001Z,0.10
2023-05-20T04:28:26.980Z,0.10
2023-05-20T04:29:26.964Z,0.10
2023-05-20T04:30:26.994Z,0.20
2023-05-20T04:31:27.153Z,0.10
2023-05-20T04:32:27.032Z,0.20
2023-05-20T04:33:26.921Z,0.10
2023-05-20T04:34:27.126Z,0.20
2023-05-20T04:35:26.891Z,0.10
2023-05-20T04:36:26.905Z,0.10
2023-05-20T04:37:26.855Z,0.10
2023-05-20T04:38:29.390Z,0.10
2023-05-20T04:39:26.830Z,0.10
2023-05-20T04:40:26.826Z,0.10
2023-05-20T04:41:26.821Z,0.10
2023-05-20T04:42:26.826Z,0.10
2023-05-20T04:43:26.775Z,0.20
2023-05-20T04:44:26.788Z,0.10
2023-05-20T04:45:26.755Z,0.20
2023-05-20T04:46:26.767Z,0.20
2023-05-20T04:47:26.786Z,0.20
2023-05-20T04:48:26.726Z,0.20
2023-05-20T04:49:26.714Z,0.20
2023-05-20T04:50:26.686Z,0.20
2023-05-20T04:51:26.686Z,0.20
2023-05-20T04:52:26.668Z,0.20
2023-05-20T04:53:26.677Z,0.20
2023-05-20T04:54:26.638Z,0.20
2023-05-20T04:55:26.632Z,0.20
2023-05-20T04:56:26.614Z,0.10
2023-05-20T04:57:26.602Z,0.20
2023-05-20T04:58:26.635Z,0.20
2023-05-20T04:59:26.584Z,0.10
2023-05-20T05:00:26.565Z,0.20
2023-05-20T05:01:26.618Z,0.10
2023-05-20T05:02:26.585Z,0.20
2023-05-20T05:03:26.549Z,0.10
2023-05-20T05:04:26.572Z,0.20
2023-05-20T05:05:26.504Z,0.20
2023-05-20T05:06:26.496Z,0.20
2023-05-20T05:07:26.507Z,0.20
2023-05-20T05:08:26.505Z,0.10
2023-05-20T05:09:26.451Z,0.10
2023-05-20T05:10:26.495Z,0.10
2023-05-20T05:11:26.436Z,0.20
2023-05-20T05:12:26.429Z,0.10
2023-05-20T05:13:26.413Z,0.10
2023-05-20T05:14:26.394Z,0.10
2023-05-20T05:15:26.407Z,0.10
2023-05-20T05:16:26.506Z,0.20
2023-05-20T05:17:26.406Z,0.10
2023-05-20T05:18:26.339Z,0.10
2023-05-20T05:19:26.379Z,0.10
2023-05-20T05:20:26.348Z,0.10
2023-05-20T05:21:26.300Z,0.10
2023-05-20T05:22:26.323Z,0.10
2023-05-20T05:23:26.273Z,0.10
2023-05-20T05:24:26.282Z,0.10
2023-05-20T05:25:26.251Z,0.20
2023-05-20T05:26:26.249Z,0.20
2023-05-20T05:27:26.234Z,0.20
2023-05-20T05:28:26.243Z,0.20
2023-05-20T05:29:26.206Z,0.20
2023-05-20T05:30:26.201Z,0.20
2023-05-20T05:31:26.174Z,0.10
2023-05-20T05:32:26.212Z,0.20
2023-05-20T05:33:26.208Z,0.20
2023-05-20T05:34:26.156Z,0.20
2023-05-20T05:35:26.161Z,0.30
2023-05-20T05:36:26.135Z,0.20
2023-05-20T05:37:26.101Z,0.20
2023-05-20T05:38:26.094Z,0.20
2023-05-20T05:39:26.071Z,0.20
2023-05-20T05:40:26.093Z,0.20
2023-05-20T05:41:26.044Z,0.20
2023-05-20T05:42:26.034Z,0.20
2023-05-20T05:43:26.032Z,0.20
2023-05-20T05:44:26.006Z,0.20
2023-05-20T05:45:25.999Z,0.20
2023-05-20T05:46:26.098Z,0.20
2023-05-20T05:47:25.992Z,0.20
2023-05-20T05:48:25.966Z,0.20
2023-05-20T05:49:25.976Z,0.20
2023-05-20T05:50:25.948Z,0.20
2023-05-20T05:51:25.913Z,0.20
2023-05-20T05:52:25.948Z,0.20
2023-05-20T05:53:25.937Z,0.20
2023-05-20T05:54:25.895Z,0.20
2023-05-20T05:55:25.868Z,0.20
2023-05-20T05:56:25.859Z,0.20
2023-05-20T05:57:25.927Z,0.20
2023-05-20T05:58:25.854Z,0.20
2023-05-20T05:59:25.846Z,0.20
2023-05-20T06:00:25.814Z,0.20
2023-05-20T06:01:25.849Z,0.20
2023-05-20T06:02:25.847Z,0.20
2023-05-20T06:03:25.837Z,0.20
2023-05-20T06:04:25.800Z,0.20
2023-05-20T06:05:27.591Z,0.20
2023-05-20T06:06:25.717Z,0.20
2023-05-20T06:07:25.701Z,0.20
2023-05-20T06:08:25.713Z,0.20
2023-05-20T06:09:25.693Z,0.20
2023-05-20T06:10:25.707Z,0.20
2023-05-20T06:11:25.658Z,0.20
2023-05-20T06:12:25.644Z,0.20
2023-05-20T06:13:25.638Z,0.20
2023-05-20T06:14:25.638Z,0.20
2023-05-20T06:15:25.637Z,0.20
2023-05-20T06:16:25.613Z,0.20
2023-05-20T06:17:25.596Z,0.20
2023-05-20T06:18:25.570Z,0.20
2023-05-20T06:19:25.593Z,0.20
2023-05-20T06:24:01.923Z,0.20
2023-05-20T06:25:02.895Z,0.20
2023-05-20T06:26:02.871Z,0.20
2023-05-20T06:27:02.849Z,0.20
2023-05-20T06:28:02.868Z,0.20
2023-05-20T06:29:02.838Z,0.20
2023-05-20T06:30:02.833Z,0.20
2023-05-20T06:31:02.894Z,0.20
2023-05-20T06:32:02.793Z,0.20
2023-05-20T06:33:02.839Z,0.30
2023-05-20T06:34:02.741Z,0.30
2023-05-20T06:36:49.014Z,0.30
2023-05-20T06:37:49.965Z,0.20
2023-05-20T06:38:49.950Z,0.30
2023-05-20T06:39:49.932Z,0.20
2023-05-20T06:40:49.941Z,0.20
2023-05-20T06:41:49.921Z,0.20
2023-05-20T06:42:49.902Z,0.30
2023-05-20T06:43:52.469Z,0.30
2023-05-20T06:45:57.998Z,0.30
2023-05-20T06:46:58.945Z,0.20
2023-05-20T06:47:59.008Z,0.20
2023-05-20T06:48:58.887Z,0.20
2023-05-20T06:49:58.874Z,0.20
2023-05-20T06:50:58.859Z,0.30
2023-05-20T06:51:58.861Z,0.30
2023-05-20T06:52:58.866Z,0.30
2023-05-20T06:53:58.818Z,0.30
2023-05-20T06:54:58.801Z,0.30
2023-05-20T06:55:58.795Z,0.30
2023-05-20T06:57:09.805Z,0.20
2023-05-20T06:57:58.764Z,0.20
2023-05-20T06:58:58.784Z,0.20
2023-05-20T06:59:58.745Z,0.30
2023-05-20T07:00:58.723Z,0.20
2023-05-20T07:01:58.782Z,0.20
2023-05-20T07:02:58.736Z,0.20
2023-05-20T07:03:58.716Z,0.20
2023-05-20T07:04:58.692Z,0.20
2023-05-20T07:05:58.662Z,0.20
2023-05-20T07:06:58.657Z,0.20
2023-05-20T07:07:58.627Z,0.20
2023-05-20T07:08:58.635Z,0.20
2023-05-20T07:09:58.604Z,0.20
2023-05-20T07:10:58.606Z,0.20
2023-05-20T07:11:58.584Z,0.20
2023-05-20T07:12:58.564Z,0.20
2023-05-20T07:13:58.565Z,0.20
2023-05-20T07:14:58.548Z,0.20
2023-05-20T07:15:58.701Z,0.20
2023-05-20T07:16:58.526Z,0.20
2023-05-20T07:17:58.515Z,0.20
2023-05-20T07:18:58.527Z,0.20
2023-05-20T07:19:58.493Z,0.20
2023-05-20T07:20:58.453Z,0.20
2023-05-20T07:21:58.470Z,0.20
2023-05-20T07:22:58.474Z,0.20
2023-05-20T07:23:58.436Z,0.20
2023-05-20T07:24:58.411Z,0.20
2023-05-20T07:25:58.399Z,0.20
2023-05-20T07:26:58.382Z,0.20
2023-05-20T07:27:58.408Z,0.20
2023-05-20T07:28:58.356Z,0.20
2023-05-20T07:29:58.355Z,0.20
2023-05-20T07:30:58.346Z,0.10
2023-05-20T07:31:58.452Z,0.20
2023-05-20T07:32:58.331Z,0.20
2023-05-20T07:33:58.365Z,0.20
2023-05-20T07:34:58.277Z,0.20
2023-05-20T07:35:58.280Z,0.20
2023-05-20T07:36:58.264Z,0.20
2023-05-20T07:37:58.244Z,0.20
2023-05-20T07:39:03.953Z,0.20
2023-05-20T07:39:58.238Z,0.20
2023-05-20T07:40:58.208Z,0.20
2023-05-20T07:41:58.220Z,0.20
2023-05-20T07:42:58.187Z,0.30
2023-05-20T07:43:58.180Z,0.30
2023-05-20T07:44:58.170Z,0.20
2023-05-20T07:45:58.163Z,0.30
2023-05-20T07:46:58.153Z,0.30
2023-05-20T07:47:58.211Z,0.30
2023-05-20T07:48:58.118Z,0.30
2023-05-20T07:49:58.094Z,0.30
2023-05-20T07:50:58.074Z,0.30
2023-05-20T07:51:58.090Z,0.30
2023-05-20T07:52:58.087Z,0.30
2023-05-20T07:53:58.041Z,0.30
2023-05-20T07:54:58.026Z,0.20
2023-05-20T07:55:58.009Z,0.30
2023-05-20T07:56:58.034Z,0.20
2023-05-20T07:57:57.981Z,0.20
2023-05-20T07:58:57.979Z,0.20
2023-05-20T07:59:57.966Z,0.20
2023-05-20T08:00:57.945Z,0.30
2023-05-20T08:01:57.975Z,0.20
2023-05-20T08:02:58.074Z,0.30
2023-05-20T08:03:58.051Z,0.20
2023-05-20T08:04:57.898Z,0.20
2023-05-20T08:05:57.871Z,0.20
2023-05-20T08:06:57.873Z,0.20
2023-05-20T08:07:57.850Z,0.20
2023-05-20T08:08:57.856Z,0.30
2023-05-20T08:09:57.834Z,0.30
2023-05-20T08:10:57.827Z,0.20
2023-05-20T08:11:57.805Z,0.30
2023-05-20T08:12:57.794Z,0.30
2023-05-20T08:13:57.808Z,0.20
2023-05-20T08:14:57.810Z,0.20
2023-05-20T08:15:57.753Z,0.20
2023-05-20T08:16:57.807Z,0.20
2023-05-20T08:17:57.755Z,0.30
2023-05-20T08:18:57.793Z,0.30
2023-05-20T08:19:57.706Z,0.20
2023-05-20T08:20:57.720Z,0.30
2023-05-20T08:21:57.678Z,0.30
2023-05-20T08:22:57.668Z,0.30
2023-05-20T08:23:57.655Z,0.30
2023-05-20T08:24:57.652Z,0.20
2023-05-20T08:25:57.637Z,0.20
2023-05-20T08:26:57.643Z,0.20
2023-05-20T08:27:57.635Z,0.20
2023-05-20T08:28:57.588Z,0.30
2023-05-20T08:30:00.520Z,0.30
2023-05-20T08:30:57.618Z,0.20
2023-05-20T08:31:57.558Z,0.20
2023-05-20T08:32:57.586Z,0.30
2023-05-20T08:33:57.518Z,0.20
2023-05-20T08:34:57.500Z,0.30
2023-05-20T08:35:57.512Z,0.30
2023-05-20T08:36:57.488Z,0.20
2023-05-20T08:37:57.466Z,0.20
2023-05-20T08:38:57.589Z,0.20
2023-05-20T08:39:57.440Z,0.30
2023-05-20T08:40:57.451Z,0.40
2023-05-20T08:41:57.418Z,0.50
2023-05-20T08:42:57.427Z,0.70
2023-05-20T08:43:57.487Z,0.60
2023-05-20T08:44:57.380Z,0.60
2023-05-20T08:45:57.386Z,0.40
2023-05-20T08:46:57.474Z,0.50
2023-05-20T08:47:57.384Z,0.50
2023-05-20T08:48:57.356Z,0.40
2023-05-20T08:49:57.331Z,0.40
2023-05-20T08:50:57.297Z,0.40
2023-05-20T08:51:57.289Z,0.50
2023-05-20T08:52:57.280Z,0.40
2023-05-20T08:53:57.285Z,0.30
2023-05-20T08:54:57.250Z,0.30
2023-05-20T08:55:58.780Z,0.30
2023-05-20T08:56:57.246Z,0.30
2023-05-20T08:57:57.222Z,0.20
2023-05-20T08:58:57.229Z,0.30
2023-05-20T08:59:57.199Z,0.30
2023-05-20T09:00:57.173Z,0.30
2023-05-20T09:01:57.224Z,0.30
2023-05-20T09:02:58.793Z,0.30
2023-05-20T09:03:57.157Z,0.40
2023-05-20T09:04:57.158Z,0.40
2023-05-20T09:05:57.113Z,0.50
2023-05-20T09:06:57.099Z,0.40
2023-05-20T09:07:57.112Z,0.40
2023-05-20T09:08:57.081Z,0.40
2023-05-20T09:09:57.096Z,0.30
2023-05-20T09:10:57.075Z,0.40
2023-05-20T09:11:57.032Z,0.50
2023-05-20T09:12:57.013Z,0.50
2023-05-20T09:13:57.047Z,0.50
2023-05-20T09:14:56.993Z,0.40
2023-05-20T09:15:57.013Z,0.30
2023-05-20T09:16:56.976Z,0.30
2023-05-20T09:17:57.012Z,0.40
2023-05-20T09:18:57.061Z,0.30
2023-05-20T09:19:56.958Z,0.30
2023-05-20T09:20:56.921Z,0.30
2023-05-20T09:21:56.921Z,0.40
2023-05-20T09:22:56.898Z,0.30
2023-05-20T09:23:56.895Z,0.40
2023-05-20T09:24:56.891Z,0.30
2023-05-20T09:25:56.855Z,0.30
2023-05-20T09:26:56.842Z,0.20
2023-05-20T09:27:56.880Z,0.40
2023-05-20T09:28:56.818Z,0.30
2023-05-20T09:29:56.805Z,0.30
2023-05-20T09:30:56.808Z,0.30
2023-05-20T09:31:56.819Z,0.30
2023-05-20T09:32:56.834Z,0.40
2023-05-20T09:33:56.750Z,0.40
2023-05-20T09:34:56.739Z,0.30
2023-05-20T09:35:56.750Z,0.40
2023-05-20T09:36:56.742Z,0.50
2023-05-20T09:37:56.722Z,0.60
2023-05-20T09:38:56.720Z,0.50
2023-05-20T09:39:56.718Z,0.40
2023-05-20T09:40:56.682Z,0.30
2023-05-20T09:41:56.663Z,0.20
2023-05-20T09:42:56.667Z,0.20
2023-05-20T09:43:56.623Z,0.30
2023-05-20T09:44:56.632Z,0.30
2023-05-20T09:45:56.611Z,0.30
2023-05-20T09:46:56.581Z,0.30
2023-05-20T09:47:56.617Z,0.30
2023-05-20T09:48:56.585Z,0.40
2023-05-20T09:49:56.568Z,0.40
2023-05-20T09:50:56.532Z,0.40
2023-05-20T09:51:56.522Z,0.50
2023-05-20T09:52:56.521Z,0.40
2023-05-20T09:53:56.492Z,0.50
2023-05-20T09:54:56.507Z,0.60
2023-05-20T09:55:56.495Z,0.60
2023-05-20T09:56:56.453Z,0.50
2023-05-20T09:57:56.578Z,0.50
2023-05-20T09:58:56.453Z,0.40
2023-05-20T09:59:56.423Z,0.50
2023-05-20T10:00:56.455Z,0.40
2023-05-20T10:01:56.561Z,0.40
2023-05-20T10:02:56.565Z,0.40
2023-05-20T10:03:56.522Z,0.50
2023-05-20T10:04:56.444Z,0.50
2023-05-20T10:05:56.401Z,0.50
2023-05-20T10:06:56.363Z,0.40
2023-05-20T10:07:56.443Z,0.50
2023-05-20T10:08:57.325Z,0.50
2023-05-20T10:09:56.302Z,0.40
2023-05-20T10:10:56.280Z,0.40
2023-05-20T10:11:56.315Z,0.30
2023-05-20T10:12:56.279Z,0.30
2023-05-20T10:13:56.245Z,0.30
2023-05-20T10:14:56.240Z,0.30
2023-05-20T10:15:56.262Z,0.20
2023-05-20T10:16:56.216Z,0.20
2023-05-20T10:17:56.239Z,0.20
2023-05-20T10:18:56.232Z,0.20
2023-05-20T10:19:56.167Z,0.30
2023-05-20T10:20:56.168Z,0.30
2023-05-20T10:21:56.188Z,0.30
2023-05-20T10:22:56.135Z,0.30
2023-05-20T10:23:56.135Z,0.30
2023-05-20T10:24:56.105Z,0.30
2023-05-20T10:25:56.105Z,0.30
2023-05-20T10:26:56.090Z,0.40
2023-05-20T10:27:56.080Z,0.60
2023-05-20T10:28:56.065Z,0.50
2023-05-20T10:29:56.065Z,0.40
2023-05-20T10:30:56.042Z,0.30
2023-05-20T10:31:56.051Z,0.30
2023-05-20T10:32:56.187Z,0.40
2023-05-20T10:33:55.999Z,0.30
2023-05-20T10:34:55.988Z,0.40
2023-05-20T10:35:55.991Z,0.40
2023-05-20T10:36:55.953Z,0.40
2023-05-20T10:37:55.969Z,0.60
2023-05-20T10:38:55.952Z,0.90
2023-05-20T10:39:55.927Z,1.00
2023-05-20T10:40:55.926Z,0.70
2023-05-20T10:41:55.909Z,1.90
2023-05-20T10:42:55.885Z,2.20
2023-05-20T10:43:55.871Z,1.40
2023-05-20T10:44:55.873Z,1.40
2023-05-20T10:45:55.867Z,1.40
2023-05-20T10:47:55.886Z,0.80
2023-05-20T10:48:55.993Z,1.00
2023-05-20T10:49:55.797Z,2.20
2023-05-20T10:50:55.825Z,1.10
2023-05-20T10:51:55.795Z,0.80
2023-05-20T10:52:55.762Z,0.50
2023-05-20T10:53:55.762Z,0.40
2023-05-20T10:54:55.759Z,0.80
2023-05-20T10:55:55.731Z,1.70
2023-05-20T10:56:55.771Z,1.40
2023-05-20T10:57:55.722Z,0.60
2023-05-20T10:58:55.707Z,1.30
2023-05-20T10:59:55.710Z,2.40
2023-05-20T11:00:55.713Z,1.50
2023-05-20T11:01:55.713Z,1.70
2023-05-20T11:02:55.700Z,0.80
2023-05-20T11:03:55.773Z,1.10
2023-05-20T11:04:55.633Z,1.40
2023-05-20T11:05:55.626Z,1.30
2023-05-20T11:06:55.627Z,2.40
2023-05-20T11:07:55.615Z,2.60
2023-05-20T11:08:55.604Z,0.80
2023-05-20T11:09:55.605Z,0.90
2023-05-20T11:10:55.585Z,0.50
2023-05-20T11:11:55.564Z,0.50
2023-05-20T11:12:55.596Z,0.50
2023-05-20T11:13:55.566Z,0.40
2023-05-20T11:14:55.543Z,0.90
2023-05-20T11:15:55.606Z,0.90
2023-05-20T11:16:55.566Z,0.90
2023-05-20T11:17:55.577Z,0.80
2023-05-20T11:18:55.522Z,0.70
2023-05-20T11:19:55.468Z,0.70
2023-05-20T11:20:55.456Z,0.70
2023-05-20T11:21:55.454Z,0.60
2023-05-20T11:22:55.448Z,0.50
2023-05-20T11:23:55.430Z,1.20
2023-05-20T11:24:55.445Z,1.60
2023-05-20T11:25:55.407Z,1.70
2023-05-20T11:26:55.403Z,1.20
2023-05-20T11:27:55.372Z,0.50
2023-05-20T11:28:55.386Z,0.50
2023-05-20T11:29:55.378Z,0.50
2023-05-20T11:30:55.359Z,0.30
2023-05-20T11:31:55.425Z,0.40
2023-05-20T11:32:55.329Z,0.40
2023-05-20T11:33:55.304Z,0.30
2023-05-20T11:34:55.297Z,0.30
2023-05-20T11:35:55.318Z,0.20
2023-05-20T11:36:55.288Z,0.30
2023-05-20T11:37:55.272Z,0.30
2023-05-20T11:38:55.255Z,0.30
2023-05-20T11:39:55.795Z,0.40
2023-05-20T11:40:55.595Z,1.10
2023-05-20T11:41:55.228Z,0.60
2023-05-20T11:42:55.217Z,0.70
2023-05-20T11:43:55.186Z,0.80
2023-05-20T11:44:55.179Z,1.40
2023-05-20T11:45:55.253Z,1.10
2023-05-20T11:46:55.160Z,0.60
2023-05-20T11:47:55.211Z,0.40
2023-05-20T11:48:55.146Z,0.40
2023-05-20T11:49:55.127Z,0.30
2023-05-20T11:50:55.131Z,0.30
2023-05-20T11:51:55.101Z,0.30
2023-05-20T11:52:55.078Z,0.20
2023-05-20T11:53:55.093Z,0.30
2023-05-20T11:54:55.119Z,0.20
2023-05-20T11:55:55.044Z,0.20
2023-05-20T11:56:55.046Z,0.20
2023-05-20T11:57:55.031Z,0.20
2023-05-20T11:58:55.009Z,0.20
2023-05-20T11:59:55.018Z,0.30
2023-05-20T12:00:59.496Z,0.30
2023-05-20T12:01:54.979Z,0.30
2023-05-20T12:02:55.059Z,0.30
2023-05-20T12:03:55.016Z,0.30
2023-05-20T12:04:55.107Z,0.30
2023-05-20T12:05:54.952Z,0.40
2023-05-20T12:06:54.918Z,0.30
2023-05-20T12:07:56.470Z,0.50
2023-05-20T12:08:54.902Z,0.50
2023-05-20T12:09:54.878Z,0.50
2023-05-20T12:10:54.864Z,0.70
2023-05-20T12:11:54.882Z,1.00
2023-05-20T12:12:54.833Z,1.50
2023-05-20T12:13:54.832Z,1.50
2023-05-20T12:14:54.816Z,1.40
2023-05-20T12:15:54.856Z,1.30
2023-05-20T12:16:54.805Z,1.00
2023-05-20T12:17:54.926Z,1.30
2023-05-20T12:18:54.806Z,1.30
2023-05-20T12:19:54.767Z,0.50
2023-05-20T12:20:54.760Z,0.40
2023-05-20T12:21:54.738Z,0.50
2023-05-20T12:22:54.734Z,0.50
2023-05-20T12:23:54.744Z,0.70
2023-05-20T12:24:55.432Z,0.60
2023-05-20T12:25:54.689Z,0.60
2023-05-20T12:26:54.677Z,0.60
2023-05-20T12:27:54.678Z,1.00
2023-05-20T12:28:54.667Z,0.70
2023-05-20T12:29:54.690Z,1.60
2023-05-20T12:30:54.639Z,1.80
2023-05-20T12:31:54.646Z,1.60
2023-05-20T12:32:54.658Z,0.80
2023-05-20T12:33:54.609Z,0.50
2023-05-20T12:34:54.602Z,0.50
2023-05-20T12:35:54.613Z,0.40
2023-05-20T12:36:54.569Z,0.30
2023-05-20T12:37:54.551Z,0.30
2023-05-20T12:38:54.547Z,0.20
2023-05-20T12:39:54.532Z,0.20
2023-05-20T12:40:54.526Z,0.20
2023-05-20T12:41:54.518Z,0.20
2023-05-20T12:42:54.480Z,0.20
2023-05-20T12:43:54.496Z,0.20
2023-05-20T12:44:54.464Z,0.20
2023-05-20T12:45:54.507Z,0.20
2023-05-20T12:46:54.516Z,0.20
2023-05-20T12:47:54.530Z,0.20
2023-05-20T12:48:54.413Z,0.20
2023-05-20T12:49:54.399Z,0.30
2023-05-20T12:50:54.388Z,0.20
2023-05-20T12:51:54.392Z,0.30
2023-05-20T12:52:54.381Z,0.30
2023-05-20T12:53:54.441Z,0.30
2023-05-20T12:54:54.347Z,0.30
2023-05-20T12:55:54.337Z,0.30
2023-05-20T12:56:54.322Z,0.20
2023-05-20T12:57:54.299Z,0.20
2023-05-20T12:58:54.295Z,0.30
2023-05-20T12:59:54.284Z,0.20
2023-05-20T13:00:54.301Z,0.20
2023-05-20T13:01:54.275Z,0.20
2023-05-20T13:02:54.312Z,0.30
2023-05-20T13:03:54.229Z,0.30
2023-05-20T13:04:54.265Z,0.20
2023-05-20T13:05:54.212Z,0.30
2023-05-20T13:06:54.192Z,0.20
2023-05-20T13:07:54.191Z,0.20
2023-05-20T13:08:54.163Z,0.20
2023-05-20T13:09:54.147Z,0.20
2023-05-20T13:10:54.166Z,0.20
2023-05-20T13:11:54.148Z,0.20
2023-05-20T13:12:54.109Z,0.20
2023-05-20T13:13:54.108Z,0.20
2023-05-20T13:14:54.084Z,0.20
2023-05-20T13:15:54.085Z,0.20
2023-05-20T13:16:54.203Z,0.20
2023-05-20T13:17:54.088Z,0.20
2023-05-20T13:18:54.073Z,0.20
2023-05-20T13:19:54.029Z,0.30
2023-05-20T13:20:54.049Z,0.30
2023-05-20T13:21:54.000Z,0.20
2023-05-20T13:22:54.006Z,0.20
2023-05-20T13:23:53.985Z,0.20
2023-05-20T13:24:53.971Z,0.20
2023-05-20T13:25:53.964Z,0.30